createdAt,value
2022-10-04T00:00:12.330Z,20.71
2022-10-04T00:03:19.838Z,20.52
2022-10-04T00:06:25.309Z,20.58
2022-10-04T00:09:31.013Z,20.57
2022-10-04T00:12:35.921Z,20.45
2022-10-04T00:15:39.172Z,20.50
2022-10-04T00:18:46.203Z,20.58
2022-10-04T00:22:10.226Z,20.49
2022-10-04T00:25:18.715Z,20.69
2022-10-04T00:28:44.179Z,20.50
2022-10-04T00:32:01.691Z,20.51
2022-10-04T00:35:05.011Z,20.71
2022-10-04T00:38:10.340Z,20.59
2022-10-04T00:41:14.823Z,19.76
2022-10-04T00:44:21.279Z,19.21
2022-10-04T00:47:31.818Z,18.85
2022-10-04T00:50:37.172Z,19.15
2022-10-04T00:53:48.511Z,18.74
2022-10-04T00:56:53.501Z,18.78
2022-10-04T00:59:59.252Z,18.44
2022-10-04T01:03:03.657Z,18.44
2022-10-04T01:06:08.076Z,19.06
2022-10-04T01:09:11.714Z,19.05
2022-10-04T01:12:22.496Z,19.04
2022-10-04T01:15:31.080Z,18.84
2022-10-04T01:18:34.383Z,18.91
2022-10-04T01:21:39.241Z,18.56
2022-10-04T01:24:44.160Z,18.83
2022-10-04T01:27:46.961Z,19.16
2022-10-04T01:30:50.058Z,18.86
2022-10-04T01:33:52.825Z,18.88
2022-10-04T01:36:56.677Z,18.82
2022-10-04T01:40:00.806Z,19.02
2022-10-04T01:43:06.160Z,18.69
2022-10-04T01:46:12.181Z,18.68
2022-10-04T01:49:18.402Z,18.69
2022-10-04T01:52:23.472Z,18.60
2022-10-04T01:55:30.076Z,18.80
2022-10-04T01:58:35.093Z,18.72
2022-10-04T02:01:40.703Z,18.84
2022-10-04T02:04:44.414Z,18.56
2022-10-04T02:07:48.767Z,18.86
2022-10-04T02:10:54.976Z,18.79
2022-10-04T02:13:58.522Z,18.59
2022-10-04T02:17:02.678Z,18.90
2022-10-04T02:20:10.853Z,18.67
2022-10-04T02:23:13.982Z,18.91
2022-10-04T02:26:18.074Z,18.59
2022-10-04T02:29:21.319Z,18.48
2022-10-04T02:32:41.807Z,18.65
2022-10-04T02:35:45.977Z,18.60
2022-10-04T02:38:52.714Z,18.76
2022-10-04T02:41:58.946Z,18.57
2022-10-04T02:45:06.888Z,18.62
2022-10-04T02:48:18.266Z,18.70
2022-10-04T02:51:22.151Z,18.57
2022-10-04T02:54:29.781Z,18.73
2022-10-04T02:57:35.105Z,18.60
2022-10-04T03:00:47.661Z,18.67
2022-10-04T03:03:50.383Z,18.60
2022-10-04T03:06:54.051Z,18.33
2022-10-04T03:09:56.765Z,18.49
2022-10-04T03:13:00.802Z,18.61
2022-10-04T03:16:03.899Z,18.45
2022-10-04T03:19:07.812Z,18.60
2022-10-04T03:22:11.549Z,18.45
2022-10-04T03:25:17.169Z,18.42
2022-10-04T03:28:21.692Z,18.46
2022-10-04T03:31:26.896Z,18.51
2022-10-04T03:34:33.115Z,18.57
2022-10-04T03:37:36.714Z,18.41
2022-10-04T03:40:43.086Z,18.27
2022-10-04T03:43:49.458Z,18.35
2022-10-04T03:46:52.199Z,18.30
2022-10-04T03:49:55.845Z,18.36
2022-10-04T03:53:00.043Z,18.20
2022-10-04T03:56:04.666Z,18.33
2022-10-04T03:59:09.952Z,18.26
2022-10-04T04:02:17.211Z,18.29
2022-10-04T04:05:22.992Z,18.30
2022-10-04T04:08:28.340Z,18.18
2022-10-04T04:11:31.083Z,18.50
2022-10-04T04:14:35.157Z,18.35
2022-10-04T04:17:40.965Z,18.30
2022-10-04T04:20:44.842Z,18.42
2022-10-04T04:23:50.377Z,18.34
2022-10-04T04:26:55.424Z,18.28
2022-10-04T04:30:00.604Z,18.23
2022-10-04T04:33:08.206Z,18.01
2022-10-04T04:36:12.694Z,18.04
2022-10-04T04:39:36.817Z,18.24
2022-10-04T04:42:39.502Z,18.31
2022-10-04T04:45:43.747Z,18.16
2022-10-04T04:48:48.410Z,18.22
2022-10-04T04:51:52.412Z,18.42
2022-10-04T04:54:56.489Z,18.14
2022-10-04T04:58:00.353Z,18.38
2022-10-04T05:01:07.193Z,18.03
2022-10-04T05:04:17.961Z,18.12
2022-10-04T05:07:21.156Z,18.26
2022-10-04T05:10:30.745Z,18.13
2022-10-04T05:13:37.257Z,17.97
2022-10-04T05:16:43.083Z,18.50
2022-10-04T05:19:46.398Z,18.29
2022-10-04T05:22:50.400Z,18.40
2022-10-04T05:25:53.499Z,18.55
2022-10-04T05:28:56.456Z,18.05
2022-10-04T05:32:06.335Z,18.39
2022-10-04T05:35:16.299Z,18.56
2022-10-04T05:38:26.613Z,18.44
2022-10-04T05:41:33.602Z,18.58
2022-10-04T05:44:37.956Z,18.61
2022-10-04T05:47:43.116Z,18.55
2022-10-04T05:50:45.903Z,18.52
2022-10-04T05:53:50.283Z,18.72
2022-10-04T05:57:10.860Z,18.63
2022-10-04T06:00:15.821Z,19.30
2022-10-04T06:03:30.087Z,19.72
2022-10-04T06:06:38.764Z,19.84
2022-10-04T06:09:51.731Z,19.91
2022-10-04T06:12:58.346Z,19.97
2022-10-04T06:16:17.048Z,20.09
2022-10-04T06:19:34.707Z,19.99
2022-10-04T06:22:45.707Z,20.22
2022-10-04T06:25:50.447Z,20.37
2022-10-04T06:28:56.247Z,20.40
2022-10-04T06:32:24.103Z,20.42
2022-10-04T06:35:42.897Z,20.54
2022-10-04T06:39:04.036Z,20.58
2022-10-04T06:42:25.361Z,20.60
2022-10-04T06:45:31.725Z,20.60
2022-10-04T06:48:44.508Z,20.69
2022-10-04T06:51:57.775Z,20.61
2022-10-04T06:55:18.058Z,20.70
2022-10-04T06:58:39.007Z,20.68
2022-10-04T07:01:49.264Z,20.92
2022-10-04T07:05:08.112Z,20.99
2022-10-04T07:08:13.615Z,21.07
2022-10-04T07:11:18.696Z,21.00
2022-10-04T07:14:27.591Z,21.06
2022-10-04T07:17:31.687Z,20.97
2022-10-04T07:20:35.730Z,20.97
2022-10-04T07:23:40.836Z,21.01
2022-10-04T07:26:46.299Z,21.15
2022-10-04T07:29:56.198Z,21.04
2022-10-04T07:32:59.375Z,21.21
2022-10-04T07:36:05.258Z,21.21
2022-10-04T07:39:11.511Z,21.16
2022-10-04T07:42:20.511Z,21.16
2022-10-04T07:45:30.059Z,21.07
2022-10-04T07:48:33.266Z,21.18
2022-10-04T07:51:40.058Z,21.27
2022-10-04T07:54:46.957Z,21.37
2022-10-04T07:57:55.037Z,21.34
2022-10-04T08:01:02.256Z,21.34
2022-10-04T08:04:15.316Z,21.41
2022-10-04T08:07:20.845Z,21.44
2022-10-04T08:10:27.782Z,21.51
2022-10-04T08:13:36.109Z,21.59
2022-10-04T08:16:47.351Z,21.52
2022-10-04T08:19:58.007Z,21.61
2022-10-04T08:23:06.315Z,21.67
2022-10-04T08:26:18.705Z,21.80
2022-10-04T08:29:47.395Z,21.68
2022-10-04T08:32:56.008Z,21.74
2022-10-04T08:36:06.024Z,21.73
2022-10-04T08:39:18.578Z,21.80
2022-10-04T08:42:41.976Z,22.00
2022-10-04T08:46:10.966Z,22.10
2022-10-04T08:49:40.052Z,22.29
2022-10-04T08:53:00.020Z,22.28
2022-10-04T08:56:17.388Z,22.36
2022-10-04T08:59:50.897Z,22.39
2022-10-04T09:03:18.985Z,22.43
2022-10-04T09:06:42.763Z,22.32
2022-10-04T09:10:09.165Z,22.41
2022-10-04T09:13:33.031Z,22.35
2022-10-04T09:16:43.798Z,22.46
2022-10-04T09:19:54.040Z,22.41
2022-10-04T09:23:02.867Z,22.47
2022-10-04T09:26:21.052Z,22.56
2022-10-04T09:29:33.040Z,22.54
2022-10-04T09:32:49.150Z,22.70
2022-10-04T09:36:00.119Z,22.74
2022-10-04T09:39:30.058Z,22.69
2022-10-04T09:42:42.367Z,22.77
2022-10-04T09:45:52.848Z,22.69
2022-10-04T09:49:04.885Z,22.68
2022-10-04T09:52:14.284Z,22.68
2022-10-04T09:55:24.221Z,22.71
2022-10-04T09:58:45.377Z,22.71
2022-10-04T10:01:51.903Z,22.75
2022-10-04T10:05:02.253Z,22.74
2022-10-04T10:08:13.005Z,22.67
2022-10-04T10:11:39.552Z,22.69
2022-10-04T10:14:57.781Z,22.69
2022-10-04T10:18:06.404Z,22.64
2022-10-04T10:21:19.747Z,22.59
2022-10-04T10:24:28.142Z,22.52
2022-10-04T10:27:45.761Z,22.57
2022-10-04T10:30:59.016Z,22.57
2022-10-04T10:34:14.562Z,22.54
2022-10-04T10:37:18.978Z,22.54
2022-10-04T10:40:40.956Z,22.55
2022-10-04T10:44:02.299Z,22.53
2022-10-04T10:47:15.075Z,22.57
2022-10-04T10:50:27.481Z,22.57
2022-10-04T10:53:46.208Z,22.44
2022-10-04T10:56:58.155Z,22.45
2022-10-04T11:00:18.671Z,22.40
2022-10-04T11:03:40.003Z,22.33
2022-10-04T11:07:01.861Z,22.22
2022-10-04T11:10:23.072Z,22.26
2022-10-04T11:13:45.152Z,21.97
2022-10-04T11:16:58.567Z,21.29
2022-10-04T11:20:24.379Z,21.14
2022-10-04T11:23:54.147Z,20.74
2022-10-04T11:27:28.569Z,20.70
2022-10-04T11:30:38.325Z,20.46
2022-10-04T11:33:58.546Z,20.39
2022-10-04T11:37:06.303Z,13.33
2022-10-04T11:40:18.017Z,19.21
2022-10-04T11:43:27.777Z,19.89
2022-10-04T11:46:37.400Z,19.71
2022-10-04T11:49:48.295Z,19.95
2022-10-04T11:53:06.155Z,20.24
2022-10-04T11:56:34.175Z,20.30
2022-10-04T11:59:44.625Z,20.24
2022-10-04T12:03:02.845Z,20.22
2022-10-04T12:06:14.655Z,20.41
2022-10-04T12:09:19.944Z,20.45
2022-10-04T12:12:41.614Z,20.60
2022-10-04T12:15:56.667Z,20.44
2022-10-04T12:19:20.936Z,20.47
2022-10-04T12:22:30.912Z,20.64
2022-10-04T12:25:42.615Z,20.29
2022-10-04T12:29:00.008Z,20.30
2022-10-04T12:32:08.221Z,20.14
2022-10-04T12:46:49.688Z,19.60
2022-10-04T12:49:57.953Z,19.67
2022-10-04T12:53:07.480Z,19.71
2022-10-04T12:56:18.314Z,19.76
2022-10-04T12:59:30.445Z,19.53
2022-10-04T13:02:48.992Z,19.40
2022-10-04T13:06:02.848Z,19.24
2022-10-04T13:09:09.431Z,19.33
2022-10-04T13:12:22.799Z,19.44
2022-10-04T13:17:21.681Z,19.56
2022-10-04T13:18:58.435Z,19.22
2022-10-04T13:22:15.655Z,19.20
2022-10-04T13:25:32.079Z,18.96
2022-10-04T13:28:39.994Z,18.91
2022-10-04T13:31:50.217Z,18.90
2022-10-04T13:34:57.403Z,18.85
2022-10-04T13:38:12.046Z,18.66
2022-10-04T13:41:21.649Z,18.86
2022-10-04T13:44:36.910Z,18.78
2022-10-04T13:47:48.172Z,18.60
2022-10-04T13:51:00.778Z,18.90
2022-10-04T13:54:30.568Z,18.79
2022-10-04T13:57:41.474Z,18.97
2022-10-04T14:00:54.608Z,18.95
2022-10-04T14:04:08.071Z,18.82
2022-10-04T14:07:34.949Z,18.81
2022-10-04T14:10:52.675Z,18.78
2022-10-04T14:14:31.381Z,19.01
2022-10-04T14:17:48.251Z,18.51
2022-10-04T14:21:20.484Z,18.78
2022-10-04T14:24:34.568Z,18.88
2022-10-04T14:28:02.300Z,18.52
2022-10-04T14:31:20.617Z,18.63
2022-10-04T14:34:35.012Z,18.57
2022-10-04T14:38:08.239Z,18.58
2022-10-04T14:41:32.452Z,18.38
2022-10-04T14:44:44.974Z,18.13
2022-10-04T14:48:18.132Z,18.23
2022-10-04T14:51:32.407Z,18.11
2022-10-04T14:54:46.183Z,18.48
2022-10-04T14:57:54.459Z,18.23
2022-10-04T15:01:08.998Z,18.37
2022-10-04T15:04:31.403Z,18.52
2022-10-04T15:07:37.701Z,18.59
2022-10-04T15:10:49.578Z,18.44
2022-10-04T15:13:55.934Z,18.50
2022-10-04T15:17:01.528Z,18.45
2022-10-04T15:20:10.874Z,18.52
2022-10-04T15:23:21.078Z,18.47
2022-10-04T15:26:50.410Z,17.88
2022-10-04T15:30:00.357Z,18.43
2022-10-04T15:33:23.487Z,18.30
2022-10-04T15:36:40.914Z,18.29
2022-10-04T15:40:03.900Z,18.36
2022-10-04T15:43:22.144Z,18.34
2022-10-04T15:46:32.171Z,18.55
2022-10-04T15:49:50.170Z,18.29
2022-10-04T15:53:19.638Z,18.34
2022-10-04T15:56:32.471Z,18.38
2022-10-04T15:59:45.347Z,18.36
2022-10-04T16:02:53.475Z,18.21
2022-10-04T16:06:00.351Z,18.27
2022-10-04T16:09:14.013Z,18.46
2022-10-04T16:12:22.849Z,18.38
2022-10-04T16:15:32.492Z,18.39
2022-10-04T16:18:40.821Z,18.69
2022-10-04T16:21:52.861Z,18.39
2022-10-04T16:25:00.337Z,18.03
2022-10-04T16:28:09.918Z,18.29
2022-10-04T16:31:20.407Z,18.29
2022-10-04T16:34:30.613Z,18.33
2022-10-04T16:37:36.201Z,18.43
2022-10-04T16:40:41.854Z,18.18
2022-10-04T16:43:56.885Z,18.63
2022-10-04T16:47:05.634Z,18.43
2022-10-04T16:50:11.314Z,18.47
2022-10-04T16:53:23.462Z,18.54
2022-10-04T16:56:28.702Z,18.19
2022-10-04T16:59:48.124Z,18.31
2022-10-04T17:03:12.432Z,18.08
2022-10-04T17:06:17.388Z,18.15
2022-10-04T17:09:25.836Z,17.94
2022-10-04T17:12:37.689Z,18.41
2022-10-04T17:16:00.827Z,17.95
2022-10-04T17:19:16.530Z,18.32
2022-10-04T17:22:26.776Z,18.44
2022-10-04T17:25:34.968Z,18.22
2022-10-04T17:28:47.813Z,18.31
2022-10-04T17:31:58.595Z,18.48
2022-10-04T17:35:09.227Z,18.49
2022-10-04T17:38:17.677Z,18.05
2022-10-04T17:41:25.218Z,18.03
2022-10-04T17:44:47.057Z,17.89
2022-10-04T17:48:13.643Z,18.34
2022-10-04T17:51:45.503Z,18.08
2022-10-04T17:55:08.868Z,18.10
2022-10-04T17:58:15.903Z,17.96
2022-10-04T18:01:32.113Z,18.35
2022-10-04T18:04:42.949Z,18.16
2022-10-04T18:07:49.846Z,17.90
2022-10-04T18:10:59.151Z,18.22
2022-10-04T18:14:04.060Z,18.21
2022-10-04T18:17:09.834Z,18.37
2022-10-04T18:20:27.983Z,18.48
2022-10-04T18:23:34.801Z,18.22
2022-10-04T18:26:41.593Z,18.13
2022-10-04T18:29:46.011Z,18.10
2022-10-04T18:32:53.766Z,18.24
2022-10-04T18:36:06.630Z,18.16
2022-10-04T18:39:40.809Z,18.11
2022-10-04T18:42:47.381Z,18.27
2022-10-04T18:46:07.967Z,17.93
2022-10-04T18:49:25.983Z,18.12
2022-10-04T18:52:42.472Z,18.25
2022-10-04T18:55:52.209Z,18.14
2022-10-04T18:59:20.924Z,18.07
2022-10-04T19:02:34.765Z,18.15
2022-10-04T19:05:44.299Z,18.07
2022-10-04T19:09:01.196Z,18.19
2022-10-04T19:12:08.617Z,18.11
2022-10-04T19:15:18.383Z,17.85
2022-10-04T19:18:35.526Z,18.03
2022-10-04T19:21:47.546Z,17.66
2022-10-04T19:25:03.593Z,18.02
2022-10-04T19:28:12.629Z,18.05
2022-10-04T19:31:21.857Z,18.00
2022-10-04T19:34:34.143Z,18.29
2022-10-04T19:37:46.416Z,18.24
2022-10-04T19:40:57.810Z,18.46
2022-10-04T19:44:05.541Z,18.22
2022-10-04T19:47:22.569Z,17.91
2022-10-04T19:50:27.472Z,17.93
2022-10-04T19:53:37.033Z,17.97
2022-10-04T19:56:43.925Z,18.26
2022-10-04T19:59:50.725Z,18.24
2022-10-04T20:02:53.539Z,18.03
2022-10-04T20:05:57.974Z,18.03
2022-10-04T20:09:24.437Z,17.78
2022-10-04T20:12:35.453Z,17.94
2022-10-04T20:15:46.673Z,18.39
2022-10-04T20:18:57.569Z,18.25
2022-10-04T20:22:20.833Z,18.19
2022-10-04T20:25:41.453Z,18.17
2022-10-04T20:28:46.216Z,18.06
2022-10-04T20:31:53.443Z,17.73
2022-10-04T20:35:00.169Z,17.88
2022-10-04T20:38:32.057Z,18.11
2022-10-04T20:42:22.687Z,17.87
2022-10-04T20:45:30.834Z,17.87
2022-10-04T20:48:33.930Z,17.93
2022-10-04T20:51:36.651Z,18.26
2022-10-04T20:54:40.592Z,17.63
2022-10-04T20:57:43.327Z,17.82
2022-10-04T21:00:53.594Z,17.81
2022-10-04T21:04:12.732Z,17.59
2022-10-04T21:07:18.371Z,18.04
2022-10-04T21:10:21.386Z,17.75
2022-10-04T21:13:43.010Z,17.51
2022-10-04T21:16:48.483Z,17.76
2022-10-04T21:19:51.500Z,17.77
2022-10-04T21:23:08.341Z,18.00
2022-10-04T21:26:20.961Z,17.98
2022-10-04T21:29:23.638Z,17.57
2022-10-04T21:32:28.387Z,17.66
2022-10-04T21:35:31.061Z,17.69
2022-10-04T21:38:33.764Z,17.92
2022-10-04T21:41:36.578Z,17.69
2022-10-04T21:44:39.209Z,17.71
2022-10-04T21:47:43.314Z,17.61
2022-10-04T21:50:46.051Z,17.56
2022-10-04T21:53:48.735Z,17.63
2022-10-04T21:56:51.411Z,17.90
2022-10-04T21:59:54.060Z,17.66
2022-10-04T22:02:58.155Z,17.59
2022-10-04T22:06:00.893Z,17.60
2022-10-04T22:09:03.661Z,17.36
2022-10-04T22:12:06.352Z,18.17
2022-10-04T22:15:09.440Z,18.02
2022-10-04T22:18:13.497Z,18.20
2022-10-04T22:21:16.213Z,17.99
2022-10-04T22:24:20.056Z,17.96
2022-10-04T22:27:22.802Z,17.97
2022-10-04T22:30:26.432Z,17.97
2022-10-04T22:33:33.995Z,17.94
2022-10-04T22:36:37.959Z,17.75
2022-10-04T22:39:40.672Z,18.10
2022-10-04T22:42:43.409Z,17.91
2022-10-04T22:45:46.080Z,17.83
2022-10-04T22:48:50.713Z,17.64
2022-10-04T22:51:54.337Z,17.94
2022-10-04T22:55:00.418Z,17.74
2022-10-04T22:58:03.407Z,17.64
2022-10-04T23:01:11.878Z,17.99
2022-10-04T23:04:17.909Z,17.92
2022-10-04T23:07:20.937Z,17.84
2022-10-04T23:10:23.576Z,17.68
2022-10-04T23:13:26.958Z,17.90
2022-10-04T23:16:29.852Z,17.60
2022-10-04T23:19:33.908Z,17.74
2022-10-04T23:22:36.780Z,17.86
2022-10-04T23:25:42.736Z,17.49
2022-10-04T23:28:45.483Z,17.69
2022-10-04T23:31:49.786Z,17.67
2022-10-04T23:34:56.870Z,17.08
2022-10-04T23:37:59.958Z,17.61
2022-10-04T23:41:03.043Z,17.33
2022-10-04T23:44:11.441Z,17.38
2022-10-04T23:47:15.700Z,17.56
2022-10-04T23:50:22.144Z,17.95
2022-10-04T23:53:27.139Z,17.41
2022-10-04T23:56:30.428Z,17.44
2022-10-04T23:59:33.171Z,17.58
